Time;durP1;ratioP1;P1;durP2;ratioP2;P2;SDS_P1;SDS_P2;PMS_P1;PMS_P2;Temp;Humidity;BMP_temperature;BMP_pressure;BME280_temperature;BME280_humidity;BME280_pressure;Samples;Min_cycle;Max_cycle;Signal;HPM_P1;HPM_P2
2023/04/10 00:02:22;;;;;;;;;;;;;;;;;;5058835;27;92279;-79
2023/04/10 00:04:48;;;;;;;16.38;9.40;;;;;;;;;;5061730;27;115114;-77
2023/04/10 00:07:15;;;;;;;14.80;9.15;;;;;;;;;;5041649;27;91875;-80
2023/04/10 00:09:42;;;;;;;14.88;9.20;;;;;;;;;;5058361;27;92957;-80
2023/04/10 00:12:10;;;;;;;15.60;9.02;;;;;;;;;;5058284;27;93078;-80
2023/04/10 00:14:36;;;;;;;14.00;8.07;;;;;;;;;;5058114;27;95240;-81
2023/04/10 00:17:03;;;;;;;13.77;7.90;;;;;;;;;;5058861;27;97225;-81
2023/04/10 00:19:29;;;;;;;12.75;7.45;;;;;;;;;;5058501;27;92543;-82
2023/04/10 00:21:56;;;;;;;14.60;7.50;;;;;;;;;;5059249;27;93154;-82
2023/04/10 00:24:22;;;;;;;13.02;7.35;;;;;;;;;;5058489;27;92472;-81
2023/04/10 00:26:49;;;;;;;12.98;7.53;;;;;;;;;;5038042;27;95585;-81
2023/04/10 00:29:15;;;;;;;12.63;6.88;;;;;;;;;;5059668;27;92454;-81
2023/04/10 00:31:42;;;;;;;12.05;6.53;;;;;;;;;;5059114;27;92052;-80
2023/04/10 00:34:09;;;;;;;13.57;6.90;;;;;;;;;;5039081;27;92871;-80
2023/04/10 00:36:35;;;;;;;12.15;6.78;;;;;;;;;;5040575;27;93449;-79
2023/04/10 00:39:02;;;;;;;14.20;7.68;;;;;;;;;;5057571;27;94749;-81
2023/04/10 00:41:28;;;;;;;11.50;6.68;;;;;;;;;;5040068;27;93332;-80
2023/04/10 00:43:56;;;;;;;11.95;6.60;;;;;;;;;;5039655;27;95799;-80
2023/04/10 00:46:23;;;;;;;11.02;6.70;;;;;;;;;;5054041;27;92687;-80
2023/04/10 00:48:51;;;;;;;11.75;6.45;;;;;;;;;;5041373;27;92188;-80
2023/04/10 00:51:21;;;;;;;12.27;6.78;;;;;;;;;;5058060;27;92720;-81
2023/04/10 00:53:53;;;;;;;11.40;6.53;;;;;;;;;;5041392;27;92532;-82
2023/04/10 00:56:20;;;;;;;12.27;7.25;;;;;;;;;;5057198;27;92535;-81
2023/04/10 00:58:47;;;;;;;11.27;6.35;;;;;;;;;;5059500;27;92416;-82
2023/04/10 01:01:13;;;;;;;12.57;7.07;;;;;;;;;;5058342;27;92224;-82
2023/04/10 01:03:41;;;;;;;10.50;6.15;;;;;;;;;;5039487;27;94936;-82
2023/04/10 01:06:07;;;;;;;11.95;6.78;;;;;;;;;;5038747;27;92726;-81
2023/04/10 01:08:52;;;;;;;11.82;6.57;;;;;;;;;;5038040;27;92467;-81
2023/04/10 01:11:45;;;;;;;11.25;5.95;;;;;;;;;;5044912;27;94541;-81
2023/04/10 01:14:23;;;;;;;11.80;6.47;;;;;;;;;;5039558;27;92360;-82
2023/04/10 01:16:57;;;;;;;12.02;6.22;;;;;;;;;;5042757;27;95023;-81
2023/04/10 01:19:36;;;;;;;12.05;5.80;;;;;;;;;;5021653;28;95153;-83
2023/04/10 01:22:02;;;;;;;11.57;6.10;;;;;;;;;;5061527;27;91595;-82
2023/04/10 01:24:49;;;;;;;10.35;5.82;;;;;;;;;;5062632;27;92327;-82
2023/04/10 01:27:24;;;;;;;11.38;6.60;;;;;;;;;;5043001;27;94755;-82
2023/04/10 01:29:54;;;;;;;9.68;5.55;;;;;;;;;;5042195;27;95063;-82
2023/04/10 01:32:21;;;;;;;11.68;6.32;;;;;;;;;;5011588;27;96274;-82
2023/04/10 01:34:53;;;;;;;11.15;6.10;;;;;;;;;;5026661;27;92352;-81
2023/04/10 01:37:22;;;;;;;10.30;5.97;;;;;;;;;;5053452;27;94739;-80
2023/04/10 01:39:50;;;;;;;11.73;5.53;;;;;;;;;;5061369;27;92770;-82
2023/04/10 01:42:18;;;;;;;12.13;5.75;;;;;;;;;;5042389;27;92827;-81
2023/04/10 01:44:45;;;;;;;12.23;6.78;;;;;;;;;;5023580;27;93738;-81
2023/04/10 01:47:13;;;;;;;12.55;6.35;;;;;;;;;;5042302;27;94904;-81
2023/04/10 01:49:43;;;;;;;;;;;;;;;;;;5043303;27;92513;-80
2023/04/10 01:52:10;;;;;;;13.00;6.88;;;;;;;;;;5042354;27;107391;-81
2023/04/10 01:54:37;;;;;;;;;;;;;;;;;;5028965;27;97370;-81
2023/04/10 01:57:04;;;;;;;9.93;5.22;;;;;;;;;;5043758;27;96953;-81
2023/04/10 01:59:43;;;;;;;10.63;5.47;;;;;;;;;;5043409;27;92610;-81
2023/04/10 02:02:12;;;;;;;10.68;5.43;;;;;;;;;;5041092;27;92466;-80
2023/04/10 02:04:38;;;;;;;11.30;5.63;;;;;;;;;;5042888;27;95076;-81
2023/04/10 02:07:17;;;;;;;10.55;5.47;;;;;;;;;;5060176;27;92474;-82
2023/04/10 02:09:49;;;;;;;10.23;5.40;;;;;;;;;;5032883;27;92208;-81
2023/04/10 02:12:21;;;;;;;11.82;5.80;;;;;;;;;;5022456;27;92428;-81
2023/04/10 02:14:48;;;;;;;10.57;5.75;;;;;;;;;;5043460;27;92853;-81
2023/04/10 02:17:17;;;;;;;10.68;5.57;;;;;;;;;;5044900;27;92077;-81
2023/04/10 02:19:47;;;;;;;10.48;5.97;;;;;;;;;;5039261;27;97662;-80
2023/04/10 02:22:15;;;;;;;11.15;6.22;;;;;;;;;;5059470;27;92455;-80
2023/04/10 02:24:41;;;;;;;10.77;5.60;;;;;;;;;;5062653;27;93298;-81
2023/04/10 02:27:09;;;;;;;10.57;5.63;;;;;;;;;;5059625;27;92630;-82
2023/04/10 02:29:36;;;;;;;10.18;5.50;;;;;;;;;;5061728;27;92290;-81
2023/04/10 02:32:05;;;;;;;12.10;5.57;;;;;;;;;;5041242;27;93570;-81
2023/04/10 02:34:32;;;;;;;11.77;5.50;;;;;;;;;;5042722;27;94461;-81
2023/04/10 02:36:58;;;;;;;11.95;5.72;;;;;;;;;;5060612;27;91419;-80
2023/04/10 02:39:28;;;;;;;9.43;4.97;;;;;;;;;;5045872;27;94227;-81
2023/04/10 02:41:55;;;;;;;10.10;5.05;;;;;;;;;;5040278;27;92194;-80
2023/04/10 02:44:22;;;;;;;10.15;5.38;;;;;;;;;;5041044;27;94909;-81
2023/04/10 02:46:48;;;;;;;9.40;4.53;;;;;;;;;;5024395;27;94788;-81
2023/04/10 02:49:16;;;;;;;10.27;5.22;;;;;;;;;;5062929;27;92584;-80
2023/04/10 02:51:43;;;;;;;11.60;5.97;;;;;;;;;;5050955;27;95167;-82
2023/04/10 02:54:09;;;;;;;9.77;5.03;;;;;;;;;;5042961;27;93264;-80
2023/04/10 02:56:38;;;;;;;9.85;5.43;;;;;;;;;;5041482;27;92646;-81
2023/04/10 02:59:04;;;;;;;9.98;5.22;;;;;;;;;;5059699;27;92897;-80
2023/04/10 03:01:32;;;;;;;;;;;;;;;;;;5045280;27;95031;-80
2023/04/10 03:03:58;;;;;;;9.20;4.97;;;;;;;;;;5044166;27;93256;-81
2023/04/10 03:06:30;;;;;;;9.65;4.82;;;;;;;;;;5039779;27;99170;-80
2023/04/10 03:08:57;;;;;;;9.55;5.10;;;;;;;;;;5041200;27;94535;-80
2023/04/10 03:11:25;;;;;;;9.80;5.28;;;;;;;;;;5040573;27;94735;-80
2023/04/10 03:13:51;;;;;;;11.02;4.75;;;;;;;;;;5060618;27;93096;-82
2023/04/10 03:16:18;;;;;;;10.23;4.80;;;;;;;;;;5058790;27;92099;-82
2023/04/10 03:18:45;;;;;;;10.93;5.22;;;;;;;;;;5043004;27;94760;-83
2023/04/10 03:21:12;;;;;;;10.63;5.22;;;;;;;;;;5041270;27;94885;-81
2023/04/10 03:23:39;;;;;;;9.60;4.70;;;;;;;;;;5037864;28;92213;-82
2023/04/10 03:26:05;;;;;;;9.45;4.85;;;;;;;;;;5056602;27;92307;-81
2023/04/10 03:28:36;;;;;;;9.05;4.65;;;;;;;;;;5042692;27;92339;-82
2023/04/10 03:31:03;;;;;;;10.68;5.45;;;;;;;;;;5059602;27;92688;-82
2023/04/10 03:33:33;;;;;;;9.40;5.05;;;;;;;;;;5042388;27;95692;-83
2023/04/10 03:35:59;;;;;;;9.05;4.55;;;;;;;;;;5043775;27;92902;-82
2023/04/10 03:38:26;;;;;;;9.23;4.70;;;;;;;;;;5040121;27;97132;-82
2023/04/10 03:40:52;;;;;;;10.35;4.65;;;;;;;;;;5040594;27;92754;-82
2023/04/10 03:43:21;;;;;;;8.43;4.32;;;;;;;;;;5044768;27;92280;-82
2023/04/10 03:45:48;;;;;;;8.82;4.65;;;;;;;;;;5040369;27;95206;-82
2023/04/10 03:48:15;;;;;;;8.90;4.40;;;;;;;;;;5039903;27;92021;-82
2023/04/10 03:50:44;;;;;;;9.77;5.00;;;;;;;;;;5025103;27;94909;-83
2023/04/10 03:53:11;;;;;;;8.65;4.60;;;;;;;;;;5041025;27;95259;-81
2023/04/10 03:55:37;;;;;;;9.48;4.78;;;;;;;;;;5041345;27;92410;-82
2023/04/10 03:58:04;;;;;;;8.98;4.85;;;;;;;;;;5038428;27;95329;-79
2023/04/10 04:00:31;;;;;;;9.18;4.43;;;;;;;;;;5041379;27;95178;-80
2023/04/10 04:03:10;;;;;;;8.65;4.35;;;;;;;;;;5041688;27;92557;-80
2023/04/10 04:05:46;;;;;;;9.90;4.47;;;;;;;;;;5061218;27;92296;-80
2023/04/10 04:08:35;;;;;;;9.48;4.43;;;;;;;;;;5017062;27;92220;-81
2023/04/10 04:11:12;;;;;;;8.27;4.40;;;;;;;;;;5025240;27;93389;-80
2023/04/10 04:13:55;;;;;;;9.75;4.68;;;;;;;;;;5040772;27;95140;-80
2023/04/10 04:16:42;;;;;;;9.68;5.15;;;;;;;;;;5060215;27;92624;-79
2023/04/10 04:19:29;;;;;;;9.65;4.85;;;;;;;;;;5047462;27;91992;-80
2023/04/10 04:22:21;;;;;;;10.63;4.50;;;;;;;;;;5038184;27;95229;-80
2023/04/10 04:25:09;;;;;;;9.75;5.03;;;;;;;;;;5052584;27;94553;-80
2023/04/10 04:27:50;;;;;;;10.68;4.90;;;;;;;;;;5055196;27;97251;-80
2023/04/10 04:30:55;;;;;;;9.93;4.40;;;;;;;;;;4967380;28;96948;-80
2023/04/10 04:33:36;;;;;;;8.48;4.55;;;;;;;;;;4960157;28;93376;-81
2023/04/10 04:36:22;;;;;;;9.27;4.68;;;;;;;;;;5009906;27;94696;-81
2023/04/10 04:39:07;;;;;;;9.48;4.35;;;;;;;;;;5050691;27;92347;-81
2023/04/10 04:41:39;;;;;;;9.00;4.47;;;;;;;;;;5057257;27;92182;-80
2023/04/10 04:44:19;;;;;;;8.13;4.03;;;;;;;;;;5039984;27;94275;-80
2023/04/10 04:47:04;;;;;;;8.65;4.45;;;;;;;;;;5055422;27;92418;-81
2023/04/10 04:49:52;;;;;;;8.32;4.05;;;;;;;;;;5060664;27;92345;-81
2023/04/10 04:52:40;;;;;;;9.05;4.32;;;;;;;;;;5040464;27;102512;-81
2023/04/10 04:55:44;;;;;;;8.85;4.35;;;;;;;;;;4991116;28;92632;-81
2023/04/10 04:58:37;;;;;;;9.88;4.60;;;;;;;;;;4984893;28;97726;-81
2023/04/10 05:01:26;;;;;;;8.43;4.45;;;;;;;;;;5016701;27;93496;-82
2023/04/10 05:04:08;;;;;;;12.45;4.50;;;;;;;;;;5043537;27;94648;-82
2023/04/10 05:06:53;;;;;;;8.55;4.30;;;;;;;;;;5042133;27;94991;-81
2023/04/10 05:09:50;;;;;;;9.82;4.25;;;;;;;;;;5034520;27;92106;-83
2023/04/10 05:12:44;;;;;;;8.40;4.40;;;;;;;;;;5028407;27;99302;-83
2023/04/10 05:15:24;;;;;;;8.95;4.28;;;;;;;;;;5043427;27;95315;-82
2023/04/10 05:18:06;;;;;;;8.50;4.38;;;;;;;;;;5044147;27;92320;-83
2023/04/10 05:20:40;;;;;;;8.40;4.47;;;;;;;;;;5041279;27;95292;-83
2023/04/10 05:23:30;;;;;;;9.50;4.70;;;;;;;;;;5044220;27;96138;-83
2023/04/10 05:26:16;;;;;;;9.48;4.20;;;;;;;;;;5021147;27;94796;-82
2023/04/10 05:28:54;;;;;;;9.15;4.43;;;;;;;;;;5043088;27;94183;-83
2023/04/10 05:31:44;;;;;;;8.90;4.75;;;;;;;;;;5019096;27;92547;-82
2023/04/10 05:34:18;;;;;;;8.88;4.50;;;;;;;;;;5042326;27;94458;-83
2023/04/10 05:37:07;;;;;;;9.23;4.68;;;;;;;;;;5042362;27;95012;-84
2023/04/10 05:39:56;;;;;;;9.10;4.20;;;;;;;;;;5043556;27;91768;-83
2023/04/10 05:42:33;;;;;;;8.52;4.38;;;;;;;;;;5027160;27;98476;-82
2023/04/10 05:45:23;;;;;;;9.25;4.70;;;;;;;;;;5034775;27;92730;-82
2023/04/10 05:48:08;;;;;;;9.60;4.22;;;;;;;;;;5042253;27;94606;-81
2023/04/10 05:50:54;;;;;;;8.85;4.50;;;;;;;;;;5045136;27;92856;-81
2023/04/10 05:53:40;;;;;;;7.88;4.10;;;;;;;;;;5060459;27;92224;-83
2023/04/10 05:56:25;;;;;;;8.13;4.20;;;;;;;;;;5027335;27;98878;-83
2023/04/10 05:59:26;;;;;;;8.50;4.60;;;;;;;;;;5060811;27;94118;-83
2023/04/10 06:02:20;;;;;;;9.27;4.90;;;;;;;;;;5057063;27;92460;-83
2023/04/10 06:04:47;;;;;;;9.60;4.68;;;;;;;;;;5040223;27;92666;-82
2023/04/10 06:07:15;;;;;;;9.25;4.72;;;;;;;;;;5027385;27;94429;-83
2023/04/10 06:09:41;;;;;;;8.95;4.35;;;;;;;;;;5030988;27;93404;-83
2023/04/10 06:12:08;;;;;;;9.13;4.82;;;;;;;;;;5023887;27;94987;-83
2023/04/10 06:14:37;;;;;;;9.20;4.68;;;;;;;;;;5041173;27;94781;-82
2023/04/10 06:17:05;;;;;;;9.68;5.03;;;;;;;;;;5040312;27;95764;-83
2023/04/10 06:19:32;;;;;;;8.63;4.35;;;;;;;;;;5061082;27;93095;-83
2023/04/10 06:21:58;;;;;;;8.95;4.63;;;;;;;;;;5024596;27;92272;-83
2023/04/10 06:24:24;;;;;;;9.70;4.80;;;;;;;;;;5059250;27;93362;-83
2023/04/10 06:26:53;;;;;;;9.70;5.00;;;;;;;;;;5059132;27;93006;-83
2023/04/10 06:29:20;;;;;;;10.35;4.88;;;;;;;;;;5033841;27;92375;-83
2023/04/10 06:31:47;;;;;;;8.90;4.68;;;;;;;;;;5042018;27;92663;-83
2023/04/10 06:34:14;;;;;;;9.95;5.50;;;;;;;;;;5040809;27;92346;-81
2023/04/10 06:36:51;;;;;;;9.07;4.53;;;;;;;;;;5041527;27;94905;-83
2023/04/10 06:39:18;;;;;;;9.75;5.18;;;;;;;;;;5044856;27;97594;-82
2023/04/10 06:41:45;;;;;;;10.18;4.97;;;;;;;;;;5059843;27;92500;-82
2023/04/10 06:44:22;;;;;;;11.38;5.97;;;;;;;;;;5039264;27;94512;-81
2023/04/10 06:46:48;;;;;;;12.65;6.07;;;;;;;;;;5059135;27;93696;-81
2023/04/10 06:49:19;;;;;;;11.20;5.07;;;;;;;;;;5040820;27;92560;-80
2023/04/10 06:51:47;;;;;;;14.77;5.53;;;;;;;;;;5062334;27;92417;-79
2023/04/10 06:54:13;;;;;;;;;;;;;;;;;;5060547;27;92289;-80
2023/04/10 06:56:40;;;;;;;11.13;5.65;;;;;;;;;;5040682;28;93905;-80
2023/04/10 06:59:07;;;;;;;11.40;6.10;;;;;;;;;;5038864;27;93638;-80
2023/04/10 07:01:35;;;;;;;12.07;6.20;;;;;;;;;;5042206;27;92553;-78
2023/04/10 07:04:02;;;;;;;12.15;5.88;;;;;;;;;;5040116;27;94752;-80
2023/04/10 07:06:28;;;;;;;11.10;6.10;;;;;;;;;;5059107;27;92716;-80
2023/04/10 07:08:55;;;;;;;10.75;5.68;;;;;;;;;;5039422;27;92703;-80
2023/04/10 07:11:22;;;;;;;12.15;6.10;;;;;;;;;;5044370;27;92834;-79
2023/04/10 07:13:52;;;;;;;9.85;5.60;;;;;;;;;;5062729;27;93232;-81
2023/04/10 07:16:19;;;;;;;10.25;5.45;;;;;;;;;;5055804;27;92824;-80
2023/04/10 07:18:46;;;;;;;12.13;5.75;;;;;;;;;;5041226;27;92419;-79
2023/04/10 07:21:13;;;;;;;10.45;5.65;;;;;;;;;;5049040;27;91374;-80
2023/04/10 07:23:39;;;;;;;10.85;5.97;;;;;;;;;;5043447;27;92193;-80
2023/04/10 07:26:06;;;;;;;11.27;6.10;;;;;;;;;;5056516;27;93422;-79
2023/04/10 07:28:32;;;;;;;11.38;6.03;;;;;;;;;;5058034;27;94860;-79
2023/04/10 07:30:59;;;;;;;10.75;5.75;;;;;;;;;;5059958;27;94798;-79
2023/04/10 07:33:25;;;;;;;10.02;5.95;;;;;;;;;;5059243;27;92705;-79
2023/04/10 07:35:52;;;;;;;12.15;6.13;;;;;;;;;;5058695;27;93651;-80
2023/04/10 07:38:19;;;;;;;11.00;6.05;;;;;;;;;;5039718;27;93151;-78
2023/04/10 07:40:46;;;;;;;;;;;;;;;;;;5053278;27;92119;-82
2023/04/10 07:43:13;;;;;;;11.38;6.78;;;;;;;;;;5039244;28;92325;-78
2023/04/10 07:45:39;;;;;;;10.57;6.05;;;;;;;;;;5052358;27;91885;-79
2023/04/10 07:48:06;;;;;;;12.07;6.65;;;;;;;;;;5036103;27;92199;-80
2023/04/10 07:50:33;;;;;;;11.23;6.93;;;;;;;;;;5054379;27;92731;-79
2023/04/10 07:53:02;;;;;;;11.30;6.75;;;;;;;;;;5034910;27;95001;-79
2023/04/10 07:55:29;;;;;;;11.05;6.75;;;;;;;;;;5036073;28;92525;-79
2023/04/10 07:57:55;;;;;;;12.68;6.95;;;;;;;;;;5049798;27;93036;-79
2023/04/10 08:00:22;;;;;;;11.48;6.78;;;;;;;;;;5039074;27;92735;-79
2023/04/10 08:02:48;;;;;;;11.25;6.40;;;;;;;;;;5058858;27;92312;-78
2023/04/10 08:05:15;;;;;;;10.80;6.63;;;;;;;;;;5034491;27;94520;-79
2023/04/10 08:07:42;;;;;;;12.43;6.85;;;;;;;;;;5038943;27;92471;-79
2023/04/10 08:10:08;;;;;;;10.60;6.30;;;;;;;;;;5040530;27;92510;-80
2023/04/10 08:12:35;;;;;;;11.55;5.88;;;;;;;;;;5054729;27;92738;-80
2023/04/10 08:15:02;;;;;;;11.27;6.60;;;;;;;;;;5035162;28;92129;-80
2023/04/10 08:17:28;;;;;;;10.13;5.70;;;;;;;;;;5054593;27;95157;-80
2023/04/10 08:19:55;;;;;;;12.35;6.90;;;;;;;;;;5024627;28;92608;-81
2023/04/10 08:22:21;;;;;;;10.80;6.53;;;;;;;;;;5052397;27;93149;-80
2023/04/10 08:24:48;;;;;;;10.40;6.30;;;;;;;;;;5041192;27;92705;-81
2023/04/10 08:27:15;;;;;;;10.70;7.07;;;;;;;;;;5042576;27;92432;-81
2023/04/10 08:29:42;;;;;;;11.10;6.57;;;;;;;;;;5052003;27;92481;-81
2023/04/10 08:32:09;;;;;;;10.63;6.65;;;;;;;;;;5052619;27;92364;-80
2023/04/10 08:34:35;;;;;;;13.35;6.70;;;;;;;;;;5041162;27;93692;-80
2023/04/10 08:37:05;;;;;;;10.98;6.55;;;;;;;;;;5061958;27;92919;-79
2023/04/10 08:39:33;;;;;;;11.40;6.13;;;;;;;;;;5058889;27;94195;-79
2023/04/10 08:42:00;;;;;;;11.82;7.32;;;;;;;;;;5046425;27;94834;-79
2023/04/10 08:44:27;;;;;;;11.32;6.47;;;;;;;;;;5043573;27;97198;-79
2023/04/10 08:46:55;;;;;;;12.10;6.88;;;;;;;;;;5061763;27;92374;-81
2023/04/10 08:49:30;;;;;;;11.73;6.75;;;;;;;;;;5043211;27;92717;-81
2023/04/10 08:51:57;;;;;;;15.15;6.60;;;;;;;;;;5044635;27;92634;-78
2023/04/10 08:54:24;;;;;;;;;;;;;;;;;;5043182;27;92251;-77
2023/04/10 08:56:52;;;;;;;10.93;5.95;;;;;;;;;;5044076;27;112462;-77
2023/04/10 08:59:19;;;;;;;19.20;5.30;;;;;;;;;;5055705;27;91955;-78
2023/04/10 09:01:46;;;;;;;8.57;3.70;;;;;;;;;;5050250;27;92291;-78
2023/04/10 09:04:13;;;;;;;7.65;3.50;;;;;;;;;;5029958;27;95728;-77
2023/04/10 09:06:39;;;;;;;8.13;3.50;;;;;;;;;;5041571;27;94522;-78
2023/04/10 09:09:06;;;;;;;6.63;3.30;;;;;;;;;;5062074;27;95644;-78
2023/04/10 09:11:50;;;;;;;8.85;3.70;;;;;;;;;;5064855;27;92592;-78
2023/04/10 09:14:18;;;;;;;;;;;;;;;;;;5029608;27;93030;-77
2023/04/10 09:16:44;;;;;;;6.82;3.72;;;;;;;;;;5062819;27;104835;-78
2023/04/10 09:19:10;;;;;;;7.90;3.53;;;;;;;;;;5043055;27;93583;-78
2023/04/10 09:21:37;;;;;;;7.30;3.30;;;;;;;;;;5050499;27;92166;-78
2023/04/10 09:24:03;;;;;;;7.00;3.55;;;;;;;;;;5055195;27;92480;-77
2023/04/10 09:26:31;;;;;;;7.03;3.70;;;;;;;;;;5053302;27;92158;-78
2023/04/10 09:29:16;;;;;;;6.40;3.35;;;;;;;;;;5052131;27;93506;-77
2023/04/10 09:31:42;;;;;;;7.70;3.90;;;;;;;;;;5035871;27;96702;-77
2023/04/10 09:34:13;;;;;;;10.13;3.83;;;;;;;;;;5059609;27;92545;-76
2023/04/10 09:36:41;;;;;;;7.15;3.40;;;;;;;;;;5056556;27;93238;-79
2023/04/10 09:39:08;;;;;;;6.38;3.17;;;;;;;;;;5040231;27;92662;-77
2023/04/10 09:41:46;;;;;;;7.55;3.60;;;;;;;;;;5040066;27;92328;-78
2023/04/10 09:44:12;;;;;;;6.65;3.40;;;;;;;;;;5018986;27;94826;-77
2023/04/10 09:46:39;;;;;;;7.97;3.70;;;;;;;;;;5060790;27;93829;-78
2023/04/10 09:49:06;;;;;;;7.90;3.63;;;;;;;;;;5055291;27;93104;-77
2023/04/10 09:51:34;;;;;;;5.90;2.95;;;;;;;;;;5041679;27;92101;-77
2023/04/10 09:54:02;;;;;;;7.18;3.60;;;;;;;;;;5043258;27;92221;-76
2023/04/10 09:56:29;;;;;;;7.82;3.50;;;;;;;;;;5052979;27;95425;-76
2023/04/10 09:58:56;;;;;;;6.65;3.45;;;;;;;;;;5040477;27;93710;-77
2023/04/10 10:01:22;;;;;;;;;;;;;;;;;;5059270;27;92439;-77
2023/04/10 10:03:49;;;;;;;6.65;3.60;;;;;;;;;;5062381;27;108732;-77
2023/04/10 10:06:16;;;;;;;6.70;3.30;;;;;;;;;;5038801;27;94982;-76
2023/04/10 10:08:43;;;;;;;6.50;3.30;;;;;;;;;;5063783;27;91977;-76
2023/04/10 10:11:11;;;;;;;;;;;;;;;;;;5058321;27;93023;-76
2023/04/10 10:13:45;;;;;;;6.10;3.10;;;;;;;;;;5055084;27;98809;-76
2023/04/10 10:16:16;;;;;;;5.78;2.92;;;;;;;;;;5054605;27;93016;-77
2023/04/10 10:18:50;;;;;;;6.90;3.30;;;;;;;;;;5039311;27;93131;-77
2023/04/10 10:21:17;;;;;;;7.28;3.30;;;;;;;;;;5057293;27;95417;-77
2023/04/10 10:23:44;;;;;;;5.85;3.10;;;;;;;;;;5055249;27;94735;-76
2023/04/10 10:26:11;;;;;;;6.90;3.30;;;;;;;;;;5058311;27;92554;-76
2023/04/10 10:28:39;;;;;;;7.15;3.22;;;;;;;;;;5061857;27;92375;-78
2023/04/10 10:31:05;;;;;;;6.95;3.55;;;;;;;;;;5057682;27;93890;-76
2023/04/10 10:33:35;;;;;;;7.07;3.42;;;;;;;;;;5056154;27;92396;-77
2023/04/10 10:36:02;;;;;;;7.05;3.20;;;;;;;;;;5030988;27;93337;-75
2023/04/10 10:38:29;;;;;;;7.55;3.40;;;;;;;;;;5049522;27;92982;-76
2023/04/10 10:41:20;;;;;;;8.40;3.40;;;;;;;;;;5014582;27;92346;-77
2023/04/10 10:43:54;;;;;;;7.25;3.40;;;;;;;;;;5038143;27;93588;-77
2023/04/10 10:46:36;;;;;;;7.38;3.20;;;;;;;;;;5031501;27;95314;-77
2023/04/10 10:49:05;;;;;;;6.93;3.20;;;;;;;;;;5034285;27;92346;-77
2023/04/10 10:51:45;;;;;;;7.30;3.10;;;;;;;;;;5009622;27;94635;-77
2023/04/10 10:54:31;;;;;;;6.57;3.35;;;;;;;;;;5040530;27;92540;-77
2023/04/10 10:56:58;;;;;;;7.05;3.20;;;;;;;;;;5053014;27;92392;-76
2023/04/10 11:00:00;;;;;;;7.07;3.10;;;;;;;;;;5060214;27;92592;-77
2023/04/10 11:02:26;;;;;;;6.60;3.20;;;;;;;;;;5000031;28;92660;-76
2023/04/10 11:04:53;;;;;;;7.68;3.47;;;;;;;;;;5026528;28;92431;-78
2023/04/10 11:07:20;;;;;;;6.38;3.17;;;;;;;;;;5040923;27;95407;-76
2023/04/10 11:09:47;;;;;;;7.25;3.40;;;;;;;;;;5042037;27;92518;-77
2023/04/10 11:12:14;;;;;;;7.28;3.28;;;;;;;;;;5057891;27;94700;-78
2023/04/10 11:14:43;;;;;;;6.68;3.10;;;;;;;;;;5041691;28;94742;-77
2023/04/10 11:17:10;;;;;;;6.45;3.50;;;;;;;;;;5038971;27;92537;-81
2023/04/10 11:19:36;;;;;;;;;;;;;;;;;;5040700;27;93052;-80
2023/04/10 11:22:04;;;;;;;7.13;3.40;;;;;;;;;;5026237;27;92601;-78
2023/04/10 11:24:50;;;;;;;6.35;3.03;;;;;;;;;;5037754;27;92575;-78
2023/04/10 11:27:51;;;;;;;5.82;2.90;;;;;;;;;;5029941;28;93474;-79
2023/04/10 11:30:35;;;;;;;7.53;3.33;;;;;;;;;;5003544;27;91789;-79
2023/04/10 11:33:02;;;;;;;7.20;3.38;;;;;;;;;;5037584;28;92508;-79
2023/04/10 11:35:30;;;;;;;8.77;3.78;;;;;;;;;;5039301;27;93073;-79
2023/04/10 11:38:09;;;;;;;7.22;3.10;;;;;;;;;;5038965;27;94578;-78
2023/04/10 11:40:51;;;;;;;6.82;3.25;;;;;;;;;;5043556;27;97480;-79
2023/04/10 11:43:18;;;;;;;6.85;3.17;;;;;;;;;;5059940;27;91967;-79
2023/04/10 11:45:44;;;;;;;6.63;3.25;;;;;;;;;;5036595;27;92480;-78
2023/04/10 11:48:11;;;;;;;6.47;3.05;;;;;;;;;;5037856;27;93137;-79
2023/04/10 11:50:37;;;;;;;7.40;3.17;;;;;;;;;;5040102;27;92846;-80
2023/04/10 11:53:16;;;;;;;7.28;2.97;;;;;;;;;;5057713;27;92821;-80
2023/04/10 11:55:42;;;;;;;6.45;3.00;;;;;;;;;;5058918;27;92683;-79
2023/04/10 11:58:22;;;;;;;6.80;3.17;;;;;;;;;;5038229;27;92835;-79
2023/04/10 12:00:58;;;;;;;7.15;3.30;;;;;;;;;;5043564;27;94538;-79
2023/04/10 12:03:31;;;;;;;5.97;2.70;;;;;;;;;;5036480;27;94659;-80
2023/04/10 12:05:58;;;;;;;6.10;3.20;;;;;;;;;;5057220;27;95311;-79
2023/04/10 12:08:34;;;;;;;5.63;2.85;;;;;;;;;;5058035;27;92710;-79
2023/04/10 12:11:01;;;;;;;5.47;2.70;;;;;;;;;;5057298;27;92016;-80
2023/04/10 12:13:28;;;;;;;5.95;2.80;;;;;;;;;;5059615;27;92347;-80
2023/04/10 12:15:55;;;;;;;;;;;;;;;;;;5024685;27;93965;-80
2023/04/10 12:18:21;;;;;;;5.78;2.70;;;;;;;;;;5059018;27;109074;-79
2023/04/10 12:20:50;;;;;;;5.38;2.60;;;;;;;;;;5044542;27;95454;-79
2023/04/10 12:23:17;;;;;;;6.55;2.92;;;;;;;;;;5059260;27;92464;-80
2023/04/10 12:25:44;;;;;;;5.97;2.75;;;;;;;;;;5059296;27;92799;-79
2023/04/10 12:28:15;;;;;;;5.35;2.63;;;;;;;;;;5056672;27;96979;-79
2023/04/10 12:30:46;;;;;;;5.63;2.70;;;;;;;;;;5040978;27;92463;-79
2023/04/10 12:33:13;;;;;;;5.55;2.67;;;;;;;;;;5049779;27;92437;-80
2023/04/10 12:35:41;;;;;;;6.07;2.63;;;;;;;;;;5023768;27;92723;-80
2023/04/10 12:38:08;;;;;;;5.40;2.60;;;;;;;;;;5056887;27;92594;-79
2023/04/10 12:40:34;;;;;;;5.47;2.60;;;;;;;;;;5040875;27;92491;-80
2023/04/10 12:43:01;;;;;;;4.63;2.55;;;;;;;;;;5062012;27;92610;-80
2023/04/10 12:45:41;;;;;;;5.03;2.55;;;;;;;;;;5041423;27;94662;-80
2023/04/10 12:48:08;;;;;;;6.35;2.50;;;;;;;;;;5057634;27;92888;-79
2023/04/10 12:50:45;;;;;;;5.68;2.80;;;;;;;;;;5040563;27;92211;-80
2023/04/10 12:53:12;;;;;;;4.65;2.45;;;;;;;;;;5057528;27;94737;-80
2023/04/10 12:55:41;;;;;;;5.28;2.67;;;;;;;;;;5058822;27;92424;-79
2023/04/10 12:58:21;;;;;;;5.18;2.47;;;;;;;;;;5057609;27;92204;-79
2023/04/10 13:00:47;;;;;;;;;;;;;;;;;;5041128;27;92136;-80
2023/04/10 13:03:14;;;;;;;4.80;2.50;;;;;;;;;;5059042;27;120664;-79
2023/04/10 13:05:41;;;;;;;5.55;2.50;;;;;;;;;;5062501;27;92732;-80
2023/04/10 13:08:07;;;;;;;6.55;2.80;;;;;;;;;;5061139;27;92634;-79
2023/04/10 13:10:36;;;;;;;5.03;2.45;;;;;;;;;;5060387;27;91715;-80
2023/04/10 13:13:03;;;;;;;5.65;2.45;;;;;;;;;;5061355;27;92227;-80
2023/04/10 13:15:33;;;;;;;4.70;2.40;;;;;;;;;;5061646;27;93090;-80
2023/04/10 13:17:59;;;;;;;5.15;2.50;;;;;;;;;;5039743;27;95329;-80
2023/04/10 13:20:28;;;;;;;5.47;2.50;;;;;;;;;;5023646;28;99160;-80
2023/04/10 13:22:55;;;;;;;4.85;2.35;;;;;;;;;;5041245;27;92598;-79
2023/04/10 13:25:21;;;;;;;5.05;2.60;;;;;;;;;;5042074;27;92179;-79
2023/04/10 13:27:48;;;;;;;4.97;2.50;;;;;;;;;;5044319;27;92291;-79
2023/04/10 13:30:14;;;;;;;4.68;2.30;;;;;;;;;;5040738;27;92238;-79
2023/04/10 13:32:41;;;;;;;6.28;2.83;;;;;;;;;;5041171;27;92820;-79
2023/04/10 13:35:08;;;;;;;5.38;2.38;;;;;;;;;;5041846;27;91640;-80
2023/04/10 13:37:34;;;;;;;4.28;2.35;;;;;;;;;;5040959;27;93773;-80
2023/04/10 13:40:00;;;;;;;5.38;2.50;;;;;;;;;;5041453;27;92388;-79
2023/04/10 13:42:27;;;;;;;4.95;2.25;;;;;;;;;;5039594;27;95751;-80
2023/04/10 13:44:54;;;;;;;4.72;2.50;;;;;;;;;;5060430;27;92274;-80
2023/04/10 13:47:20;;;;;;;5.63;2.75;;;;;;;;;;5050278;27;92332;-80
2023/04/10 13:49:46;;;;;;;5.28;2.40;;;;;;;;;;5044526;27;92777;-80
2023/04/10 13:52:13;;;;;;;4.57;2.40;;;;;;;;;;5040103;27;92068;-80
2023/04/10 13:54:39;;;;;;;5.80;2.70;;;;;;;;;;5041331;27;92803;-80
2023/04/10 13:57:06;;;;;;;5.63;2.63;;;;;;;;;;5050133;27;92308;-80
2023/04/10 13:59:32;;;;;;;4.95;2.60;;;;;;;;;;5062334;27;92350;-79
2023/04/10 14:01:59;;;;;;;5.13;2.55;;;;;;;;;;5041879;27;94712;-80
2023/04/10 14:04:25;;;;;;;5.43;2.38;;;;;;;;;;5041224;27;92671;-80
2023/04/10 14:06:56;;;;;;;4.25;2.30;;;;;;;;;;5041163;27;94835;-80
2023/04/10 14:09:23;;;;;;;4.35;2.40;;;;;;;;;;5061696;27;93093;-80
2023/04/10 14:11:49;;;;;;;5.03;2.40;;;;;;;;;;5061682;27;92176;-79
2023/04/10 14:14:16;;;;;;;5.22;2.45;;;;;;;;;;5042316;27;95300;-79
2023/04/10 14:16:42;;;;;;;11.65;2.50;;;;;;;;;;5054633;27;92585;-80
2023/04/10 14:19:09;;;;;;;4.65;2.50;;;;;;;;;;5040290;27;92478;-79
2023/04/10 14:21:36;;;;;;;4.80;2.30;;;;;;;;;;5042346;27;93047;-79
2023/04/10 14:24:02;;;;;;;4.88;2.40;;;;;;;;;;5043031;27;91546;-79
2023/04/10 14:26:29;;;;;;;4.95;2.40;;;;;;;;;;5041943;27;93872;-80
2023/04/10 14:28:56;;;;;;;4.80;2.40;;;;;;;;;;5061222;27;93294;-79
2023/04/10 14:31:22;;;;;;;3.95;2.22;;;;;;;;;;5062315;27;95109;-79
2023/04/10 14:33:49;;;;;;;4.35;2.30;;;;;;;;;;5038914;28;95127;-79
2023/04/10 14:36:15;;;;;;;5.32;2.53;;;;;;;;;;5039932;27;92062;-79
2023/04/10 14:38:42;;;;;;;4.43;2.40;;;;;;;;;;5040633;27;92408;-79
2023/04/10 14:41:09;;;;;;;5.05;2.33;;;;;;;;;;5055311;27;93318;-79
2023/04/10 14:43:36;;;;;;;4.82;2.45;;;;;;;;;;5055145;27;92210;-79
2023/04/10 14:46:02;;;;;;;5.30;2.45;;;;;;;;;;5039661;27;92920;-81
2023/04/10 14:48:29;;;;;;;14.38;2.90;;;;;;;;;;5043778;27;93804;-81
2023/04/10 14:50:57;;;;;;;16.00;2.85;;;;;;;;;;5046122;27;92695;-81
2023/04/10 14:53:24;;;;;;;18.13;3.17;;;;;;;;;;5060296;27;92843;-81
2023/04/10 14:55:50;;;;;;;27.90;3.08;;;;;;;;;;5058200;27;94792;-81
2023/04/10 14:58:17;;;;;;;23.50;3.53;;;;;;;;;;5040424;27;98111;-81
2023/04/10 15:00:43;;;;;;;9.88;2.80;;;;;;;;;;5054777;27;92640;-80
2023/04/10 15:03:10;;;;;;;12.05;2.70;;;;;;;;;;5010622;28;92774;-81